createdAt,value
2023-02-22T00:01:02.967Z,6.40
2023-02-22T00:03:35.073Z,6.20
2023-02-22T00:06:05.085Z,6.28
2023-02-22T00:08:34.289Z,6.05
2023-02-22T00:11:09.462Z,5.60
2023-02-22T00:13:37.929Z,5.80
2023-02-22T00:16:05.751Z,6.50
2023-02-22T00:18:32.899Z,5.97
2023-02-22T00:21:00.794Z,6.47
2023-02-22T00:23:30.078Z,5.65
2023-02-22T00:25:58.978Z,6.97
2023-02-22T00:28:26.170Z,7.18
2023-02-22T00:30:54.980Z,7.78
2023-02-22T00:33:22.643Z,6.80
2023-02-22T00:35:49.948Z,8.02
2023-02-22T00:38:18.675Z,7.82
2023-02-22T00:40:46.005Z,8.73
2023-02-22T00:43:13.611Z,7.55
2023-02-22T00:45:41.301Z,8.38
2023-02-22T00:48:09.473Z,7.53
2023-02-22T00:50:37.055Z,6.95
2023-02-22T00:53:07.466Z,7.90
2023-02-22T00:55:36.395Z,7.00
2023-02-22T00:58:04.340Z,6.82
2023-02-22T01:00:38.660Z,7.22
2023-02-22T01:03:11.282Z,6.63
2023-02-22T01:05:38.614Z,7.30
2023-02-22T01:08:07.577Z,6.75
2023-02-22T01:10:36.043Z,6.75
2023-02-22T01:13:09.005Z,6.97
2023-02-22T01:15:39.096Z,7.13
2023-02-22T01:18:07.337Z,6.13
2023-02-22T01:20:34.755Z,6.90
2023-02-22T01:23:03.656Z,6.68
2023-02-22T01:25:31.525Z,6.32
2023-02-22T01:28:00.323Z,6.13
2023-02-22T01:30:33.282Z,7.22
2023-02-22T01:33:02.582Z,6.68
2023-02-22T01:35:33.010Z,6.20
2023-02-22T01:38:00.210Z,6.53
2023-02-22T01:40:42.015Z,6.20
2023-02-22T01:43:35.774Z,6.78
2023-02-22T01:46:24.339Z,6.78
2023-02-22T01:49:00.733Z,6.93
2023-02-22T01:51:37.752Z,6.15
2023-02-22T01:54:19.329Z,6.53
2023-02-22T01:57:01.507Z,5.80
2023-02-22T01:59:33.371Z,6.78
2023-02-22T02:02:00.777Z,6.43
2023-02-22T02:04:28.590Z,6.90
2023-02-22T02:07:00.349Z,6.57
2023-02-22T02:10:04.374Z,5.90
2023-02-22T02:12:35.792Z,6.13
2023-02-22T02:15:25.380Z,5.97
2023-02-22T02:17:54.415Z,5.57
2023-02-22T02:20:37.337Z,6.07
2023-02-22T02:23:16.702Z,6.85
2023-02-22T02:25:58.464Z,5.97
2023-02-22T02:28:37.321Z,6.13
2023-02-22T02:31:38.262Z,6.40
2023-02-22T02:34:21.957Z,6.40
2023-02-22T02:36:56.862Z,5.88
2023-02-22T02:39:33.649Z,6.28
2023-02-22T02:42:06.294Z,7.03
2023-02-22T02:44:40.184Z,6.20
2023-02-22T02:47:14.480Z,6.63
2023-02-22T02:49:50.087Z,7.30
2023-02-22T02:52:19.390Z,6.18
2023-02-22T02:54:47.263Z,6.65
2023-02-22T02:57:14.435Z,6.13
2023-02-22T02:59:41.446Z,6.22
2023-02-22T03:02:17.351Z,6.93
2023-02-22T03:05:22.205Z,6.63
2023-02-22T03:08:04.849Z,7.33
2023-02-22T03:10:53.789Z,6.75
2023-02-22T03:13:40.454Z,6.38
2023-02-22T03:16:15.389Z,6.13
2023-02-22T03:19:07.889Z,6.07
2023-02-22T03:21:57.280Z,6.40
2023-02-22T03:24:37.441Z,5.90
2023-02-22T03:27:09.524Z,5.80
2023-02-22T03:29:42.880Z,5.95
2023-02-22T03:32:15.860Z,6.03
2023-02-22T03:34:47.976Z,5.82
2023-02-22T03:37:18.988Z,5.90
2023-02-22T03:39:48.014Z,6.22
2023-02-22T03:42:24.147Z,5.82
2023-02-22T03:44:54.759Z,5.80
2023-02-22T03:47:28.406Z,6.00
2023-02-22T03:50:01.968Z,5.78
2023-02-22T03:52:29.513Z,5.70
2023-02-22T03:54:56.658Z,5.72
2023-02-22T03:57:32.074Z,6.10
2023-02-22T03:59:59.363Z,5.90
2023-02-22T04:02:26.841Z,5.93
2023-02-22T04:04:54.168Z,5.60
2023-02-22T04:07:21.592Z,6.03
2023-02-22T04:09:49.275Z,5.68
2023-02-22T04:12:16.369Z,6.38
2023-02-22T04:14:43.601Z,5.70
2023-02-22T04:17:10.880Z,5.65
2023-02-22T04:19:38.076Z,6.05
2023-02-22T04:22:05.286Z,5.60
2023-02-22T04:24:32.272Z,6.03
2023-02-22T04:26:59.194Z,6.07
2023-02-22T04:29:26.280Z,6.25
2023-02-22T04:31:53.410Z,5.93
2023-02-22T04:34:20.455Z,5.40
2023-02-22T04:36:47.583Z,5.85
2023-02-22T04:39:15.083Z,5.55
2023-02-22T04:41:42.386Z,5.88
2023-02-22T04:44:09.644Z,5.50
2023-02-22T04:46:36.705Z,5.80
2023-02-22T04:49:04.090Z,5.85
2023-02-22T04:51:31.444Z,6.03
2023-02-22T04:53:58.597Z,5.88
2023-02-22T04:56:25.850Z,5.65
2023-02-22T04:58:53.065Z,5.78
2023-02-22T05:01:20.171Z,6.38
2023-02-22T05:03:47.323Z,5.72
2023-02-22T05:06:14.503Z,6.10
2023-02-22T05:08:41.591Z,6.40
2023-02-22T05:11:08.642Z,6.38
2023-02-22T05:13:36.062Z,6.78
2023-02-22T05:16:03.898Z,5.90
2023-02-22T05:18:30.874Z,6.22
2023-02-22T05:20:57.867Z,5.82
2023-02-22T05:23:25.091Z,5.93
2023-02-22T05:25:52.043Z,5.88
2023-02-22T05:28:19.176Z,6.40
2023-02-22T05:30:46.461Z,6.32
2023-02-22T05:33:13.423Z,7.10
2023-02-22T05:35:40.468Z,6.30
2023-02-22T05:38:08.028Z,6.35
2023-02-22T05:40:35.147Z,6.05
2023-02-22T05:43:02.792Z,5.78
2023-02-22T05:45:30.305Z,6.07
2023-02-22T05:47:57.887Z,5.90
2023-02-22T05:50:25.220Z,6.63
2023-02-22T05:52:53.151Z,7.00
2023-02-22T05:55:22.100Z,6.90
2023-02-22T05:57:49.481Z,7.13
2023-02-22T06:00:27.459Z,7.22
2023-02-22T06:03:14.861Z,6.90
2023-02-22T06:05:42.445Z,6.65
2023-02-22T06:08:09.560Z,5.85
2023-02-22T06:10:36.899Z,6.50
2023-02-22T06:13:05.427Z,6.22
2023-02-22T06:15:32.732Z,5.57
2023-02-22T06:18:00.536Z,6.00
2023-02-22T06:20:30.153Z,5.72
2023-02-22T06:22:58.906Z,5.70
2023-02-22T06:25:31.213Z,5.50
2023-02-22T06:27:59.464Z,5.28
2023-02-22T06:30:27.847Z,5.88
2023-02-22T06:32:55.117Z,6.07
2023-02-22T06:35:22.902Z,6.03
2023-02-22T06:37:50.041Z,5.70
2023-02-22T06:40:17.584Z,5.63
2023-02-22T06:42:48.954Z,6.03
2023-02-22T06:45:18.215Z,6.00
2023-02-22T06:47:45.680Z,6.18
2023-02-22T06:50:30.612Z,6.20
2023-02-22T06:55:30.993Z,5.80
2023-02-22T06:57:59.418Z,6.28
2023-02-22T07:00:28.846Z,5.75
2023-02-22T07:02:57.116Z,5.95
2023-02-22T07:05:26.022Z,6.50
2023-02-22T07:07:55.242Z,6.07
2023-02-22T07:10:26.158Z,6.20
2023-02-22T07:12:54.165Z,6.07
2023-02-22T07:15:23.664Z,6.13
2023-02-22T07:17:51.598Z,5.78
2023-02-22T07:20:20.736Z,6.10
2023-02-22T07:22:49.248Z,5.50
2023-02-22T07:25:16.747Z,5.72
2023-02-22T07:27:44.114Z,5.80
2023-02-22T07:30:26.007Z,6.53
2023-02-22T07:32:54.881Z,5.57
2023-02-22T07:35:30.985Z,5.93
2023-02-22T07:37:58.833Z,5.78
2023-02-22T07:40:27.397Z,5.38
2023-02-22T07:42:55.609Z,6.85
2023-02-22T07:45:25.192Z,6.10
2023-02-22T07:47:52.449Z,6.07
2023-02-22T07:50:22.243Z,6.00
2023-02-22T07:52:52.761Z,6.43
2023-02-22T07:55:25.873Z,5.93
2023-02-22T07:57:55.402Z,6.20
2023-02-22T08:00:32.710Z,6.10
2023-02-22T08:03:02.256Z,6.38
2023-02-22T08:05:32.084Z,6.00
2023-02-22T08:07:59.258Z,5.60
2023-02-22T08:10:27.376Z,5.93
2023-02-22T08:12:55.993Z,5.53
2023-02-22T08:15:32.117Z,5.38
2023-02-22T08:18:01.061Z,5.35
2023-02-22T08:20:29.662Z,6.03
2023-02-22T08:22:57.851Z,5.78
2023-02-22T08:25:27.763Z,5.97
2023-02-22T08:28:02.575Z,5.45
2023-02-22T08:32:59.204Z,5.18
2023-02-22T08:35:27.528Z,5.15
2023-02-22T08:37:58.908Z,5.03
2023-02-22T08:40:28.275Z,5.18
2023-02-22T08:42:55.781Z,5.45
2023-02-22T08:45:23.345Z,4.97
2023-02-22T08:47:50.883Z,5.03
2023-02-22T08:50:30.613Z,5.18
2023-02-22T08:52:59.476Z,5.03
2023-02-22T08:55:30.130Z,5.05
2023-02-22T08:57:57.184Z,4.90
2023-02-22T09:00:29.471Z,4.72
2023-02-22T09:02:56.544Z,4.75
2023-02-22T09:05:23.837Z,4.78
2023-02-22T09:07:50.824Z,4.47
2023-02-22T09:10:26.722Z,4.72
2023-02-22T09:12:57.112Z,4.97
2023-02-22T09:15:25.568Z,4.90
2023-02-22T09:17:53.765Z,4.80
2023-02-22T09:20:23.033Z,4.82
2023-02-22T09:22:50.426Z,4.50
2023-02-22T09:25:20.637Z,4.53
2023-02-22T09:27:51.367Z,4.47
2023-02-22T09:30:34.034Z,4.10
2023-02-22T09:33:09.910Z,4.40
2023-02-22T09:35:42.459Z,4.60
2023-02-22T09:38:11.453Z,4.35
2023-02-22T09:40:45.255Z,4.05
2023-02-22T09:43:31.414Z,4.80
2023-02-22T09:46:21.405Z,5.32
2023-02-22T09:49:00.458Z,4.40
2023-02-22T09:51:35.784Z,4.65
2023-02-22T09:54:06.128Z,4.18
2023-02-22T09:56:33.988Z,4.45
2023-02-22T09:59:04.154Z,4.47
2023-02-22T10:01:48.413Z,4.47
2023-02-22T10:04:36.742Z,4.75
2023-02-22T10:07:26.150Z,5.22
2023-02-22T10:09:56.605Z,4.43
2023-02-22T10:12:28.461Z,4.80
2023-02-22T10:15:23.596Z,4.63
2023-02-22T10:18:42.499Z,4.10
2023-02-22T10:21:36.725Z,4.80
2023-02-22T10:24:27.436Z,3.92
2023-02-22T10:26:56.328Z,4.35
2023-02-22T10:29:37.730Z,4.30
2023-02-22T10:32:05.721Z,3.83
2023-02-22T10:34:48.578Z,3.63
2023-02-22T10:37:25.586Z,3.65
2023-02-22T10:40:05.432Z,3.20
2023-02-22T10:42:32.779Z,3.17
2023-02-22T10:45:00.347Z,3.42
2023-02-22T10:47:28.006Z,3.50
2023-02-22T10:50:00.899Z,3.65
2023-02-22T10:52:36.074Z,3.25
2023-02-22T10:55:15.220Z,3.33
2023-02-22T10:57:46.459Z,3.55
2023-02-22T11:00:26.452Z,2.95
2023-02-22T11:03:01.098Z,3.10
2023-02-22T11:08:16.808Z,2.80
2023-02-22T11:10:44.222Z,3.50
2023-02-22T11:13:18.883Z,3.13
2023-02-22T11:18:39.072Z,3.35
2023-02-22T11:21:11.540Z,3.10
2023-02-22T11:23:44.298Z,3.38
2023-02-22T11:26:20.415Z,2.90
2023-02-22T11:28:51.131Z,3.38
2023-02-22T11:31:30.122Z,3.75
2023-02-22T11:34:00.567Z,3.67
2023-02-22T11:36:40.875Z,3.67
2023-02-22T11:39:29.109Z,3.72
2023-02-22T11:41:57.041Z,3.50
2023-02-22T11:44:28.442Z,3.13
2023-02-22T11:47:01.176Z,3.50
2023-02-22T11:49:38.195Z,3.40
2023-02-22T11:52:10.687Z,3.40
2023-02-22T11:55:09.927Z,3.80
2023-02-22T11:57:46.845Z,3.72
2023-02-22T12:00:41.356Z,3.88
2023-02-22T12:03:54.814Z,3.70
2023-02-22T12:06:48.585Z,3.88
2023-02-22T12:10:11.812Z,4.10
2023-02-22T12:13:03.886Z,3.90
2023-02-22T12:15:48.498Z,3.90
2023-02-22T12:18:58.878Z,4.55
2023-02-22T12:21:29.861Z,4.10
2023-02-22T12:24:02.207Z,4.25
2023-02-22T12:26:29.074Z,4.10
2023-02-22T12:28:59.850Z,4.00
2023-02-22T12:31:47.401Z,4.13
2023-02-22T12:34:43.690Z,4.15
2023-02-22T12:37:34.769Z,5.70
2023-02-22T12:40:16.712Z,4.32
2023-02-22T12:42:56.916Z,4.70
2023-02-22T12:45:45.499Z,3.78
2023-02-22T12:48:46.123Z,4.65
2023-02-22T12:51:41.271Z,4.50
2023-02-22T12:54:32.262Z,4.55
2023-02-22T12:57:14.108Z,4.28
2023-02-22T12:59:52.365Z,3.90
2023-02-22T13:02:22.806Z,4.03
2023-02-22T13:04:50.161Z,4.22
2023-02-22T13:07:20.146Z,3.72
2023-02-22T13:09:59.501Z,3.67
2023-02-22T13:12:38.844Z,3.80
2023-02-22T13:15:24.851Z,4.20
2023-02-22T13:18:03.854Z,3.78
2023-02-22T13:20:39.298Z,4.07
2023-02-22T13:23:15.234Z,3.92
2023-02-22T13:25:48.583Z,4.25
2023-02-22T13:28:21.848Z,4.18
2023-02-22T13:31:11.020Z,3.73
2023-02-22T13:33:47.176Z,3.70
2023-02-22T13:36:33.781Z,3.85
2023-02-22T13:39:29.602Z,4.38
2023-02-22T13:42:32.103Z,3.80
2023-02-22T13:45:12.978Z,3.90
2023-02-22T13:48:04.370Z,4.07
2023-02-22T13:50:56.370Z,4.57
2023-02-22T13:53:28.794Z,4.60
2023-02-22T13:55:59.452Z,4.15
2023-02-22T13:58:27.139Z,4.22
2023-02-22T14:00:59.393Z,4.68
2023-02-22T14:03:36.429Z,4.55
2023-02-22T14:06:05.709Z,4.43
2023-02-22T14:08:33.775Z,4.60
2023-02-22T14:11:14.422Z,4.30
2023-02-22T14:13:55.182Z,4.32
2023-02-22T14:16:27.642Z,4.65
2023-02-22T14:19:16.643Z,4.93
2023-02-22T14:22:03.540Z,4.50
2023-02-22T14:24:45.237Z,4.95
2023-02-22T14:27:14.740Z,4.95
2023-02-22T14:30:00.478Z,4.97
2023-02-22T14:32:33.002Z,5.50
2023-02-22T14:35:06.314Z,5.32
2023-02-22T14:37:42.665Z,5.35
2023-02-22T14:40:25.886Z,5.03
2023-02-22T14:43:12.888Z,5.10
2023-02-22T14:45:47.585Z,5.07
2023-02-22T14:48:45.379Z,5.50
2023-02-22T14:51:22.397Z,5.22
2023-02-22T14:53:54.843Z,5.95
2023-02-22T14:56:26.918Z,5.40
2023-02-22T14:59:07.997Z,5.40
2023-02-22T15:01:52.739Z,6.22
2023-02-22T15:04:28.665Z,6.25
2023-02-22T15:06:57.833Z,6.03
2023-02-22T15:09:29.784Z,5.53
2023-02-22T15:12:04.174Z,6.18
2023-02-22T15:14:39.193Z,6.28
2023-02-22T15:17:16.148Z,6.00
2023-02-22T15:19:43.398Z,7.05
2023-02-22T15:22:35.675Z,6.72
2023-02-22T15:25:06.595Z,5.90
2023-02-22T15:27:37.220Z,6.95
2023-02-22T15:30:16.718Z,6.90
2023-02-22T15:33:01.309Z,7.68
2023-02-22T15:35:34.141Z,6.68
2023-02-22T15:38:20.130Z,7.90
2023-02-22T15:40:50.839Z,7.50
2023-02-22T15:43:24.346Z,8.05
2023-02-22T15:45:52.704Z,7.45
2023-02-22T15:48:20.124Z,8.60
2023-02-22T15:51:06.679Z,8.82
2023-02-22T15:53:47.292Z,8.82
2023-02-22T15:56:20.012Z,8.40
2023-02-22T15:58:47.998Z,8.38
2023-02-22T16:01:19.401Z,8.40
2023-02-22T16:03:50.442Z,8.10
2023-02-22T16:06:41.636Z,8.45
2023-02-22T16:09:15.141Z,8.43
2023-02-22T16:11:44.914Z,8.57
2023-02-22T16:14:31.495Z,8.50
2023-02-22T16:17:13.213Z,8.95
2023-02-22T16:19:44.803Z,8.52
2023-02-22T16:22:26.836Z,8.35
2023-02-22T16:24:55.140Z,8.63
2023-02-22T16:27:24.562Z,8.35
2023-02-22T16:30:29.027Z,8.82
2023-02-22T16:32:57.261Z,9.20
2023-02-22T16:35:29.127Z,8.30
2023-02-22T16:38:08.061Z,8.32
2023-02-22T16:40:41.588Z,8.05
2023-02-22T16:43:20.684Z,8.50
2023-02-22T16:45:48.177Z,8.15
2023-02-22T16:48:19.892Z,8.50
2023-02-22T16:50:50.240Z,8.93
2023-02-22T16:53:21.251Z,8.43
2023-02-22T16:55:49.758Z,7.60
2023-02-22T16:58:19.138Z,8.63
2023-02-22T17:00:46.146Z,8.13
2023-02-22T17:03:20.705Z,8.63
2023-02-22T17:08:16.440Z,8.45
2023-02-22T17:10:43.892Z,8.07
2023-02-22T17:13:22.456Z,7.93
2023-02-22T17:15:52.022Z,8.20
2023-02-22T17:18:22.775Z,7.82
2023-02-22T17:20:51.387Z,8.25
2023-02-22T17:23:19.216Z,7.50
2023-02-22T17:25:53.968Z,7.90
2023-02-22T17:28:22.056Z,8.13
2023-02-22T17:30:49.500Z,7.55
2023-02-22T17:33:19.664Z,8.35
2023-02-22T17:35:47.427Z,8.38
2023-02-22T17:38:18.788Z,8.32
2023-02-22T17:40:56.389Z,8.18
2023-02-22T17:43:25.131Z,8.18
2023-02-22T17:45:53.861Z,9.00
2023-02-22T17:48:23.792Z,8.40
2023-02-22T17:50:51.069Z,9.50
2023-02-22T17:53:21.809Z,11.77
2023-02-22T17:55:49.617Z,9.73
2023-02-22T17:58:17.206Z,9.60
2023-02-22T18:00:46.703Z,8.82
2023-02-22T18:03:17.490Z,8.88
2023-02-22T18:05:48.644Z,9.30
2023-02-22T18:08:16.382Z,10.70
2023-02-22T18:10:44.736Z,11.45
2023-02-22T18:13:19.669Z,11.65
2023-02-22T18:15:47.446Z,11.00
2023-02-22T18:18:16.183Z,10.77
2023-02-22T18:20:44.905Z,10.95
2023-02-22T18:23:16.934Z,10.70
2023-02-22T18:26:03.711Z,10.85
2023-02-22T18:28:36.412Z,10.80
2023-02-22T18:31:08.697Z,10.32
2023-02-22T18:33:35.866Z,11.70
2023-02-22T18:36:03.047Z,11.38
2023-02-22T18:38:30.153Z,11.30
2023-02-22T18:41:05.838Z,12.15
2023-02-22T18:43:36.329Z,11.55
2023-02-22T18:46:30.350Z,12.15
2023-02-22T18:48:57.725Z,11.82
2023-02-22T18:51:26.517Z,11.90
2023-02-22T18:54:00.366Z,12.77
2023-02-22T18:59:03.134Z,12.50
2023-02-22T19:01:31.761Z,12.55
2023-02-22T19:04:00.717Z,13.10
2023-02-22T19:06:27.939Z,13.52
2023-02-22T19:08:54.932Z,13.43
2023-02-22T19:11:24.175Z,13.52
2023-02-22T19:13:54.771Z,14.43
2023-02-22T19:16:24.580Z,13.60
2023-02-22T19:18:57.234Z,14.38
2023-02-22T19:21:26.175Z,14.57
2023-02-22T19:23:53.449Z,13.77
2023-02-22T19:26:25.820Z,15.60
2023-02-22T19:28:54.987Z,15.50
2023-02-22T19:31:31.228Z,14.45
2023-02-22T19:34:04.564Z,14.57
2023-02-22T19:36:32.682Z,14.85
2023-02-22T19:39:03.252Z,15.77
2023-02-22T19:41:30.790Z,14.68
2023-02-22T19:43:58.689Z,15.30
2023-02-22T19:46:25.895Z,15.30
2023-02-22T19:48:55.310Z,15.68
2023-02-22T19:51:25.578Z,14.95
2023-02-22T19:53:53.506Z,15.30
2023-02-22T19:56:27.165Z,16.63
2023-02-22T19:58:56.528Z,15.68
2023-02-22T20:01:26.448Z,15.18
2023-02-22T20:03:57.668Z,15.00
2023-02-22T20:06:28.231Z,15.10
2023-02-22T20:08:57.005Z,16.88
2023-02-22T20:11:25.027Z,15.57
2023-02-22T20:13:52.138Z,15.65
2023-02-22T20:16:19.275Z,15.18
2023-02-22T20:18:48.558Z,15.75
2023-02-22T20:21:32.929Z,15.85
2023-02-22T20:24:04.564Z,15.73
2023-02-22T20:26:34.190Z,16.50
2023-02-22T20:29:04.027Z,15.52
2023-02-22T20:31:32.634Z,16.00
2023-02-22T20:34:01.018Z,15.38
2023-02-22T20:36:30.033Z,16.60
2023-02-22T20:38:59.674Z,16.50
2023-02-22T20:44:45.261Z,17.20
2023-02-22T20:47:12.513Z,17.23
2023-02-22T20:49:39.791Z,17.00
2023-02-22T20:52:06.933Z,16.73
2023-02-22T20:54:35.276Z,17.55
2023-02-22T20:57:02.344Z,17.23
2023-02-22T20:59:29.374Z,17.95
2023-02-22T21:01:56.440Z,17.05
2023-02-22T21:04:23.530Z,17.52
2023-02-22T21:06:50.684Z,16.42
2023-02-22T21:09:20.355Z,17.08
2023-02-22T21:11:47.472Z,17.27
2023-02-22T21:14:18.693Z,17.80
2023-02-22T21:16:48.483Z,17.55
2023-02-22T21:19:27.808Z,17.77
2023-02-22T21:21:57.925Z,18.38
2023-02-22T21:24:26.688Z,17.40
2023-02-22T21:26:53.875Z,17.42
2023-02-22T21:29:20.954Z,18.45
2023-02-22T21:31:48.180Z,18.40
2023-02-22T21:34:17.519Z,18.10
2023-02-22T21:36:45.610Z,18.67
2023-02-22T21:39:19.158Z,17.55
2023-02-22T21:41:51.105Z,19.05
2023-02-22T21:44:19.104Z,18.50
2023-02-22T21:46:48.824Z,18.50
2023-02-22T21:49:16.825Z,17.15
2023-02-22T21:51:45.001Z,20.67
2023-02-22T21:54:12.851Z,18.15
2023-02-22T21:56:42.218Z,17.90
2023-02-22T21:59:19.045Z,17.73
2023-02-22T22:01:50.097Z,16.83
2023-02-22T22:04:20.073Z,17.27
2023-02-22T22:06:48.981Z,17.58
2023-02-22T22:09:19.193Z,16.85
2023-02-22T22:11:51.814Z,20.35
2023-02-22T22:14:20.615Z,17.58
2023-02-22T22:16:58.597Z,19.67
2023-02-22T22:19:30.363Z,19.52
2023-02-22T22:21:58.220Z,18.00
2023-02-22T22:24:28.871Z,18.55
2023-02-22T22:26:56.337Z,17.15
2023-02-22T22:29:24.934Z,15.82
2023-02-22T22:31:52.531Z,15.82
2023-02-22T22:34:19.614Z,15.82
2023-02-22T22:36:46.673Z,16.70
2023-02-22T22:39:14.201Z,15.68
2023-02-22T22:41:42.278Z,16.17
2023-02-22T22:44:10.937Z,16.05
2023-02-22T22:46:39.710Z,16.15
2023-02-22T22:49:12.378Z,16.17
2023-02-22T22:51:43.198Z,15.55
2023-02-22T22:54:10.801Z,15.38
2023-02-22T22:56:38.795Z,16.05
2023-02-22T22:59:08.299Z,16.73
2023-02-22T23:01:44.870Z,15.18
2023-02-22T23:04:18.314Z,14.93
2023-02-22T23:06:50.755Z,15.38
2023-02-22T23:09:21.656Z,14.88
2023-02-22T23:11:56.410Z,16.08
2023-02-22T23:14:26.611Z,15.23
2023-02-22T23:17:00.099Z,14.60
2023-02-22T23:19:27.220Z,13.95
2023-02-22T23:21:56.037Z,14.63
2023-02-22T23:24:27.171Z,13.90
2023-02-22T23:26:59.565Z,14.48
2023-02-22T23:29:27.297Z,14.60
2023-02-22T23:31:55.162Z,16.17
2023-02-22T23:34:23.277Z,14.50
2023-02-22T23:36:54.251Z,14.57
2023-02-22T23:39:22.884Z,14.30
2023-02-22T23:42:01.336Z,14.63
2023-02-22T23:44:29.547Z,15.18
2023-02-22T23:46:56.637Z,15.27
2023-02-22T23:49:26.659Z,15.45
2023-02-22T23:51:53.995Z,15.80
2023-02-22T23:54:21.613Z,16.75
2023-02-22T23:56:58.118Z,15.95
2023-02-22T23:59:26.577Z,14.57
